Aeroporto :
LOGIN :

Iscrizione | Disclaimer

   EN    FR    IT 

 










Sommario :    VFR   VFR Marginale   IFR   IFR Intensivo   IFR Molto Intensivo
Visibilità : 
Base nubi : 
>= 8 km
>= 3000ft
5 / 8 km
1000 / 3000 ft
1500m / 5 km
500 / 1000 ft
800 / 1500m
200 / 500 ft
< 800m
< 200 ft
Simboli :   Temporali  Nebbia  Neve Forte  Precipitazioni Forti  Vento > 20 kt
SIGMETs :   Varie  Temporali  Ghiacco  Turbolenza  Onda orograficha  Ceneri Vulcaniche







- Altitudine del aeroporto : 297 ft


EGVP - Middle Wallop

ULTIMO METAR :
  • 191450Z 30008KT 9999 FEW023 SCT027 BKN038 12/07 Q1027 BLU NOSIG

METARs OBSOLETI :
  • 191350Z 23006KT 9999 BKN025 BKN042 11/08 Q1027 BLU NOSIG
  • 191250Z 22007KT 9999 SCT018 BKN028 12/08 Q1027 WHT TEMPO FEW018 BLU

TAF TAF EGVP
Valido dal 19 a 15 ore il 20 a 00 ore UTC


191340Z 1915/1924 25005KT 9999 FEW018 BKN030
TEMPO 1915/1919 SCT017
PROB30 1922/1924 SCT012
ATIS : +44 1980 674 142
Nessun NOTAM noto per questo aeroporto.



MetMap, La meteo Aeronautica in un colpo d'occhio ! - Copyright ORBIFLY Dicembre 2007 - Disclaimer

ORBIFLY MET'MAP TEAM :

Programmazione e sviluppo : Alexandra Zaïnal
Concezione e sviluppo : Baudouin d'Aumeries
Co-Programmazione e sviluppo : Marc-Olivier Méhu
Supporto tecnico e logistico : Manuel Goepfert
Aiuto per la traduzione : Arnaldo La Scala

Contatto : metmap@orbifly.com




FONTI E CREDITI :

   NOAA